sensor_id;sensor_type;location;lat;lon;timestamp;P1;durP1;ratioP1;P2;durP2;ratioP2
26271;SDS011;13997;48.902;12.472;2022-12-18T00:00:31;117.25;;;36.35;;
26271;SDS011;13997;48.902;12.472;2022-12-18T00:02:57;124.65;;;38.97;;
26271;SDS011;13997;48.902;12.472;2022-12-18T00:05:22;118.63;;;38.00;;
26271;SDS011;13997;48.902;12.472;2022-12-18T00:07:48;115.82;;;35.42;;
26271;SDS011;13997;48.902;12.472;2022-12-18T00:10:14;110.22;;;36.97;;
26271;SDS011;13997;48.902;12.472;2022-12-18T00:12:39;113.38;;;36.45;;
26271;SDS011;13997;48.902;12.472;2022-12-18T00:15:05;112.85;;;37.53;;
26271;SDS011;13997;48.902;12.472;2022-12-18T00:17:31;106.30;;;34.65;;
26271;SDS011;13997;48.902;12.472;2022-12-18T00:19:56;104.82;;;35.08;;
26271;SDS011;13997;48.902;12.472;2022-12-18T00:22:22;98.90;;;33.35;;
26271;SDS011;13997;48.902;12.472;2022-12-18T00:24:47;106.60;;;33.75;;
26271;SDS011;13997;48.902;12.472;2022-12-18T00:27:13;107.25;;;34.95;;
26271;SDS011;13997;48.902;12.472;2022-12-18T00:29:39;105.60;;;35.58;;
26271;SDS011;13997;48.902;12.472;2022-12-18T00:32:04;102.80;;;34.72;;
26271;SDS011;13997;48.902;12.472;2022-12-18T00:34:30;104.57;;;35.00;;
26271;SDS011;13997;48.902;12.472;2022-12-18T00:36:55;111.30;;;33.50;;
26271;SDS011;13997;48.902;12.472;2022-12-18T00:39:21;103.57;;;34.72;;
26271;SDS011;13997;48.902;12.472;2022-12-18T00:41:46;97.20;;;34.80;;
26271;SDS011;13997;48.902;12.472;2022-12-18T00:44:30;102.03;;;33.08;;
26271;SDS011;13997;48.902;12.472;2022-12-18T00:46:56;105.63;;;32.45;;
26271;SDS011;13997;48.902;12.472;2022-12-18T00:49:22;85.47;;;33.10;;
26271;SDS011;13997;48.902;12.472;2022-12-18T00:51:48;99.28;;;33.15;;
26271;SDS011;13997;48.902;12.472;2022-12-18T00:54:13;90.10;;;32.45;;
26271;SDS011;13997;48.902;12.472;2022-12-18T00:56:40;96.18;;;32.97;;
26271;SDS011;13997;48.902;12.472;2022-12-18T00:59:06;89.78;;;32.70;;
26271;SDS011;13997;48.902;12.472;2022-12-18T01:01:31;98.80;;;32.47;;
26271;SDS011;13997;48.902;12.472;2022-12-18T01:03:57;100.60;;;33.22;;
26271;SDS011;13997;48.902;12.472;2022-12-18T01:06:24;88.28;;;29.90;;
26271;SDS011;13997;48.902;12.472;2022-12-18T01:08:49;89.03;;;29.23;;
26271;SDS011;13997;48.902;12.472;2022-12-18T01:11:18;90.72;;;30.90;;
26271;SDS011;13997;48.902;12.472;2022-12-18T01:13:45;82.35;;;28.17;;
26271;SDS011;13997;48.902;12.472;2022-12-18T01:16:11;79.75;;;27.80;;
26271;SDS011;13997;48.902;12.472;2022-12-18T01:18:37;75.53;;;25.83;;
26271;SDS011;13997;48.902;12.472;2022-12-18T01:21:07;83.75;;;28.35;;
26271;SDS011;13997;48.902;12.472;2022-12-18T01:23:33;76.68;;;27.48;;
26271;SDS011;13997;48.902;12.472;2022-12-18T01:26:04;76.93;;;28.35;;
26271;SDS011;13997;48.902;12.472;2022-12-18T01:28:33;82.18;;;29.48;;
26271;SDS011;13997;48.902;12.472;2022-12-18T01:31:08;80.47;;;28.00;;
26271;SDS011;13997;48.902;12.472;2022-12-18T01:33:45;83.70;;;28.23;;
26271;SDS011;13997;48.902;12.472;2022-12-18T01:36:29;79.72;;;27.83;;
26271;SDS011;13997;48.902;12.472;2022-12-18T01:38:58;73.50;;;25.63;;
26271;SDS011;13997;48.902;12.472;2022-12-18T01:41:29;75.28;;;25.90;;
26271;SDS011;13997;48.902;12.472;2022-12-18T01:47:14;72.20;;;26.08;;
26271;SDS011;13997;48.902;12.472;2022-12-18T01:49:43;78.82;;;26.77;;
26271;SDS011;13997;48.902;12.472;2022-12-18T01:52:09;84.15;;;28.65;;
26271;SDS011;13997;48.902;12.472;2022-12-18T01:54:34;81.88;;;28.48;;
26271;SDS011;13997;48.902;12.472;2022-12-18T01:57:00;78.65;;;28.52;;
26271;SDS011;13997;48.902;12.472;2022-12-18T01:59:26;86.43;;;30.30;;
26271;SDS011;13997;48.902;12.472;2022-12-18T02:01:53;88.78;;;28.85;;
26271;SDS011;13997;48.902;12.472;2022-12-18T02:06:45;79.93;;;28.27;;
26271;SDS011;13997;48.902;12.472;2022-12-18T02:09:15;76.70;;;27.38;;
26271;SDS011;13997;48.902;12.472;2022-12-18T02:11:50;93.18;;;29.27;;
26271;SDS011;13997;48.902;12.472;2022-12-18T02:14:46;80.43;;;28.65;;
26271;SDS011;13997;48.902;12.472;2022-12-18T02:17:21;76.53;;;26.42;;
26271;SDS011;13997;48.902;12.472;2022-12-18T02:22:44;69.75;;;24.48;;
26271;SDS011;13997;48.902;12.472;2022-12-18T02:28:13;67.82;;;24.10;;
26271;SDS011;13997;48.902;12.472;2022-12-18T02:30:41;54.30;;;20.63;;
26271;SDS011;13997;48.902;12.472;2022-12-18T02:33:10;68.30;;;23.65;;
26271;SDS011;13997;48.902;12.472;2022-12-18T02:35:37;69.13;;;24.95;;
26271;SDS011;13997;48.902;12.472;2022-12-18T02:38:05;71.88;;;25.27;;
26271;SDS011;13997;48.902;12.472;2022-12-18T02:40:31;75.22;;;26.80;;
26271;SDS011;13997;48.902;12.472;2022-12-18T02:43:09;75.15;;;27.42;;
26271;SDS011;13997;48.902;12.472;2022-12-18T02:45:46;79.00;;;27.42;;
26271;SDS011;13997;48.902;12.472;2022-12-18T02:48:23;79.95;;;27.65;;
26271;SDS011;13997;48.902;12.472;2022-12-18T02:51:13;68.10;;;24.40;;
26271;SDS011;13997;48.902;12.472;2022-12-18T02:53:53;73.15;;;25.98;;
26271;SDS011;13997;48.902;12.472;2022-12-18T02:56:28;70.32;;;25.27;;
26271;SDS011;13997;48.902;12.472;2022-12-18T02:59:04;61.00;;;22.98;;
26271;SDS011;13997;48.902;12.472;2022-12-18T03:04:30;58.70;;;23.30;;
26271;SDS011;13997;48.902;12.472;2022-12-18T03:07:05;69.00;;;23.85;;
26271;SDS011;13997;48.902;12.472;2022-12-18T03:09:37;64.68;;;23.50;;
26271;SDS011;13997;48.902;12.472;2022-12-18T03:12:10;65.47;;;23.92;;
26271;SDS011;13997;48.902;12.472;2022-12-18T03:14:47;65.28;;;23.08;;
26271;SDS011;13997;48.902;12.472;2022-12-18T03:17:39;62.17;;;22.50;;
26271;SDS011;13997;48.902;12.472;2022-12-18T03:20:13;68.40;;;23.85;;
26271;SDS011;13997;48.902;12.472;2022-12-18T03:22:42;57.50;;;20.73;;
26271;SDS011;13997;48.902;12.472;2022-12-18T03:25:10;61.22;;;23.05;;
26271;SDS011;13997;48.902;12.472;2022-12-18T03:27:39;62.30;;;22.67;;
26271;SDS011;13997;48.902;12.472;2022-12-18T03:30:10;59.63;;;21.65;;
26271;SDS011;13997;48.902;12.472;2022-12-18T03:32:58;65.88;;;21.90;;
26271;SDS011;13997;48.902;12.472;2022-12-18T03:35:35;60.78;;;21.38;;
26271;SDS011;13997;48.902;12.472;2022-12-18T03:38:05;63.03;;;21.73;;
26271;SDS011;13997;48.902;12.472;2022-12-18T03:40:34;64.22;;;22.20;;
26271;SDS011;13997;48.902;12.472;2022-12-18T03:43:09;58.70;;;21.08;;
26271;SDS011;13997;48.902;12.472;2022-12-18T03:46:18;60.63;;;21.15;;
26271;SDS011;13997;48.902;12.472;2022-12-18T03:51:52;72.03;;;24.20;;
26271;SDS011;13997;48.902;12.472;2022-12-18T03:54:36;72.90;;;24.17;;
26271;SDS011;13997;48.902;12.472;2022-12-18T03:57:13;62.63;;;23.15;;
26271;SDS011;13997;48.902;12.472;2022-12-18T03:59:45;70.50;;;24.20;;
26271;SDS011;13997;48.902;12.472;2022-12-18T04:02:12;65.78;;;22.70;;
26271;SDS011;13997;48.902;12.472;2022-12-18T04:04:41;71.95;;;22.92;;
26271;SDS011;13997;48.902;12.472;2022-12-18T04:07:08;73.13;;;23.55;;
26271;SDS011;13997;48.902;12.472;2022-12-18T04:09:34;73.82;;;24.00;;
26271;SDS011;13997;48.902;12.472;2022-12-18T04:12:03;76.13;;;24.95;;
26271;SDS011;13997;48.902;12.472;2022-12-18T04:14:29;73.30;;;25.45;;
26271;SDS011;13997;48.902;12.472;2022-12-18T04:16:55;78.53;;;25.20;;
26271;SDS011;13997;48.902;12.472;2022-12-18T04:19:20;72.57;;;25.40;;
26271;SDS011;13997;48.902;12.472;2022-12-18T04:21:46;73.95;;;23.90;;
26271;SDS011;13997;48.902;12.472;2022-12-18T04:24:11;80.22;;;27.63;;
26271;SDS011;13997;48.902;12.472;2022-12-18T04:26:37;80.63;;;27.17;;
26271;SDS011;13997;48.902;12.472;2022-12-18T04:29:03;75.90;;;24.83;;
26271;SDS011;13997;48.902;12.472;2022-12-18T04:31:29;68.97;;;24.08;;
26271;SDS011;13997;48.902;12.472;2022-12-18T04:33:54;73.60;;;24.27;;
26271;SDS011;13997;48.902;12.472;2022-12-18T04:36:20;69.97;;;23.27;;
26271;SDS011;13997;48.902;12.472;2022-12-18T04:38:46;72.65;;;25.13;;
26271;SDS011;13997;48.902;12.472;2022-12-18T04:41:11;76.50;;;25.55;;
26271;SDS011;13997;48.902;12.472;2022-12-18T04:43:37;80.82;;;24.92;;
26271;SDS011;13997;48.902;12.472;2022-12-18T04:46:06;77.05;;;25.92;;
26271;SDS011;13997;48.902;12.472;2022-12-18T04:48:32;82.55;;;26.10;;
26271;SDS011;13997;48.902;12.472;2022-12-18T04:50:59;82.88;;;26.00;;
26271;SDS011;13997;48.902;12.472;2022-12-18T04:53:24;90.97;;;26.73;;
26271;SDS011;13997;48.902;12.472;2022-12-18T04:55:50;78.72;;;25.80;;
26271;SDS011;13997;48.902;12.472;2022-12-18T04:58:16;85.95;;;26.98;;
26271;SDS011;13997;48.902;12.472;2022-12-18T05:00:41;87.65;;;26.15;;
26271;SDS011;13997;48.902;12.472;2022-12-18T05:03:07;84.72;;;26.73;;
26271;SDS011;13997;48.902;12.472;2022-12-18T05:05:34;82.53;;;26.40;;
26271;SDS011;13997;48.902;12.472;2022-12-18T05:08:00;68.15;;;22.60;;
26271;SDS011;13997;48.902;12.472;2022-12-18T05:10:26;81.03;;;25.83;;
26271;SDS011;13997;48.902;12.472;2022-12-18T05:12:51;84.25;;;26.58;;
26271;SDS011;13997;48.902;12.472;2022-12-18T05:15:23;80.88;;;25.42;;
26271;SDS011;13997;48.902;12.472;2022-12-18T05:17:52;86.70;;;26.23;;
26271;SDS011;13997;48.902;12.472;2022-12-18T05:20:18;89.50;;;26.65;;
26271;SDS011;13997;48.902;12.472;2022-12-18T05:22:43;83.32;;;24.88;;
26271;SDS011;13997;48.902;12.472;2022-12-18T05:25:09;86.28;;;24.92;;
26271;SDS011;13997;48.902;12.472;2022-12-18T05:27:35;90.68;;;26.20;;
26271;SDS011;13997;48.902;12.472;2022-12-18T05:30:00;81.60;;;24.95;;
26271;SDS011;13997;48.902;12.472;2022-12-18T05:32:26;84.43;;;26.63;;
26271;SDS011;13997;48.902;12.472;2022-12-18T05:34:51;94.65;;;26.80;;
26271;SDS011;13997;48.902;12.472;2022-12-18T05:37:17;83.05;;;24.98;;
26271;SDS011;13997;48.902;12.472;2022-12-18T05:39:43;89.35;;;27.42;;
26271;SDS011;13997;48.902;12.472;2022-12-18T05:42:09;92.43;;;26.65;;
26271;SDS011;13997;48.902;12.472;2022-12-18T05:44:34;94.72;;;28.40;;
26271;SDS011;13997;48.902;12.472;2022-12-18T05:47:00;98.43;;;27.77;;
26271;SDS011;13997;48.902;12.472;2022-12-18T05:49:31;92.38;;;27.88;;
26271;SDS011;13997;48.902;12.472;2022-12-18T05:51:57;88.55;;;27.98;;
26271;SDS011;13997;48.902;12.472;2022-12-18T05:54:23;93.25;;;27.42;;
26271;SDS011;13997;48.902;12.472;2022-12-18T05:56:48;93.75;;;28.83;;
26271;SDS011;13997;48.902;12.472;2022-12-18T05:59:14;92.35;;;28.20;;
26271;SDS011;13997;48.902;12.472;2022-12-18T06:01:40;103.00;;;29.63;;
26271;SDS011;13997;48.902;12.472;2022-12-18T06:04:05;94.32;;;28.15;;
26271;SDS011;13997;48.902;12.472;2022-12-18T06:06:31;93.28;;;27.75;;
26271;SDS011;13997;48.902;12.472;2022-12-18T06:08:56;91.05;;;26.75;;
26271;SDS011;13997;48.902;12.472;2022-12-18T06:11:23;86.03;;;25.35;;
26271;SDS011;13997;48.902;12.472;2022-12-18T06:13:51;101.93;;;26.10;;
26271;SDS011;13997;48.902;12.472;2022-12-18T06:16:20;97.43;;;29.03;;
26271;SDS011;13997;48.902;12.472;2022-12-18T06:18:46;95.30;;;26.88;;
26271;SDS011;13997;48.902;12.472;2022-12-18T06:21:12;103.75;;;28.67;;
26271;SDS011;13997;48.902;12.472;2022-12-18T06:23:38;98.47;;;28.80;;
26271;SDS011;13997;48.902;12.472;2022-12-18T06:26:08;99.25;;;29.48;;
26271;SDS011;13997;48.902;12.472;2022-12-18T06:31:02;91.10;;;26.52;;
26271;SDS011;13997;48.902;12.472;2022-12-18T06:33:28;105.13;;;28.15;;
26271;SDS011;13997;48.902;12.472;2022-12-18T06:35:54;95.90;;;28.25;;
26271;SDS011;13997;48.902;12.472;2022-12-18T06:40:50;86.05;;;25.30;;
26271;SDS011;13997;48.902;12.472;2022-12-18T06:43:16;81.93;;;26.08;;
26271;SDS011;13997;48.902;12.472;2022-12-18T06:45:41;92.22;;;29.50;;
26271;SDS011;13997;48.902;12.472;2022-12-18T06:48:07;92.13;;;27.42;;
26271;SDS011;13997;48.902;12.472;2022-12-18T06:50:32;92.15;;;26.98;;
26271;SDS011;13997;48.902;12.472;2022-12-18T06:52:58;95.90;;;28.30;;
26271;SDS011;13997;48.902;12.472;2022-12-18T06:55:24;100.25;;;29.73;;
26271;SDS011;13997;48.902;12.472;2022-12-18T06:57:50;91.78;;;28.83;;
26271;SDS011;13997;48.902;12.472;2022-12-18T07:00:16;87.45;;;28.10;;
26271;SDS011;13997;48.902;12.472;2022-12-18T07:02:42;88.43;;;28.33;;
26271;SDS011;13997;48.902;12.472;2022-12-18T07:05:07;81.35;;;27.17;;
26271;SDS011;13997;48.902;12.472;2022-12-18T07:07:33;76.90;;;24.85;;
26271;SDS011;13997;48.902;12.472;2022-12-18T07:10:00;85.20;;;26.75;;
26271;SDS011;13997;48.902;12.472;2022-12-18T07:12:28;84.97;;;26.45;;
26271;SDS011;13997;48.902;12.472;2022-12-18T07:14:54;74.55;;;22.73;;
26271;SDS011;13997;48.902;12.472;2022-12-18T07:17:19;86.22;;;27.40;;
26271;SDS011;13997;48.902;12.472;2022-12-18T07:19:45;85.10;;;30.38;;
26271;SDS011;13997;48.902;12.472;2022-12-18T07:22:10;79.45;;;26.15;;
26271;SDS011;13997;48.902;12.472;2022-12-18T07:24:36;78.55;;;25.63;;
26271;SDS011;13997;48.902;12.472;2022-12-18T07:27:01;78.55;;;26.30;;
26271;SDS011;13997;48.902;12.472;2022-12-18T07:29:27;79.15;;;25.27;;
26271;SDS011;13997;48.902;12.472;2022-12-18T07:31:53;85.13;;;26.30;;
26271;SDS011;13997;48.902;12.472;2022-12-18T07:34:19;90.28;;;27.38;;
26271;SDS011;13997;48.902;12.472;2022-12-18T07:36:44;82.78;;;26.25;;
26271;SDS011;13997;48.902;12.472;2022-12-18T07:39:10;91.75;;;27.75;;
26271;SDS011;13997;48.902;12.472;2022-12-18T07:41:42;91.95;;;26.98;;
26271;SDS011;13997;48.902;12.472;2022-12-18T07:44:10;82.40;;;26.98;;
26271;SDS011;13997;48.902;12.472;2022-12-18T07:46:37;75.07;;;24.67;;
26271;SDS011;13997;48.902;12.472;2022-12-18T07:49:03;90.10;;;26.23;;
26271;SDS011;13997;48.902;12.472;2022-12-18T07:51:28;91.65;;;26.85;;
26271;SDS011;13997;48.902;12.472;2022-12-18T07:53:54;80.40;;;26.00;;
26271;SDS011;13997;48.902;12.472;2022-12-18T07:56:20;90.50;;;26.95;;
26271;SDS011;13997;48.902;12.472;2022-12-18T07:58:46;93.88;;;27.08;;
26271;SDS011;13997;48.902;12.472;2022-12-18T08:01:11;87.53;;;29.08;;
26271;SDS011;13997;48.902;12.472;2022-12-18T08:03:38;84.07;;;28.27;;
26271;SDS011;13997;48.902;12.472;2022-12-18T08:06:05;84.30;;;25.60;;
26271;SDS011;13997;48.902;12.472;2022-12-18T08:08:33;94.15;;;27.55;;
26271;SDS011;13997;48.902;12.472;2022-12-18T08:11:00;70.60;;;24.55;;
26271;SDS011;13997;48.902;12.472;2022-12-18T08:13:26;82.80;;;24.17;;
26271;SDS011;13997;48.902;12.472;2022-12-18T08:15:59;80.78;;;25.33;;
26271;SDS011;13997;48.902;12.472;2022-12-18T08:18:28;90.18;;;26.42;;
26271;SDS011;13997;48.902;12.472;2022-12-18T08:20:54;92.95;;;26.80;;
26271;SDS011;13997;48.902;12.472;2022-12-18T08:23:20;85.78;;;26.92;;
26271;SDS011;13997;48.902;12.472;2022-12-18T08:25:46;83.25;;;26.25;;
26271;SDS011;13997;48.902;12.472;2022-12-18T08:28:12;76.55;;;26.55;;
26271;SDS011;13997;48.902;12.472;2022-12-18T08:30:38;95.22;;;27.65;;
26271;SDS011;13997;48.902;12.472;2022-12-18T08:33:03;82.28;;;25.95;;
26271;SDS011;13997;48.902;12.472;2022-12-18T08:35:29;100.32;;;30.98;;
26271;SDS011;13997;48.902;12.472;2022-12-18T08:37:55;86.28;;;27.55;;
26271;SDS011;13997;48.902;12.472;2022-12-18T08:40:20;86.32;;;28.10;;
26271;SDS011;13997;48.902;12.472;2022-12-18T08:42:46;94.88;;;27.20;;
26271;SDS011;13997;48.902;12.472;2022-12-18T08:45:30;91.85;;;28.10;;
26271;SDS011;13997;48.902;12.472;2022-12-18T08:47:57;95.72;;;28.05;;
26271;SDS011;13997;48.902;12.472;2022-12-18T08:50:22;101.38;;;29.38;;
26271;SDS011;13997;48.902;12.472;2022-12-18T08:52:48;87.32;;;25.88;;
26271;SDS011;13997;48.902;12.472;2022-12-18T08:55:13;85.35;;;27.05;;
26271;SDS011;13997;48.902;12.472;2022-12-18T08:57:39;90.68;;;26.00;;
26271;SDS011;13997;48.902;12.472;2022-12-18T09:00:05;90.32;;;28.92;;
26271;SDS011;13997;48.902;12.472;2022-12-18T09:02:31;89.55;;;27.10;;
26271;SDS011;13997;48.902;12.472;2022-12-18T09:04:56;87.15;;;31.73;;
26271;SDS011;13997;48.902;12.472;2022-12-18T09:07:22;92.55;;;29.77;;
26271;SDS011;13997;48.902;12.472;2022-12-18T09:09:47;90.03;;;26.58;;
26271;SDS011;13997;48.902;12.472;2022-12-18T09:12:13;80.70;;;25.45;;
26271;SDS011;13997;48.902;12.472;2022-12-18T09:14:39;74.72;;;25.25;;
26271;SDS011;13997;48.902;12.472;2022-12-18T09:17:04;76.47;;;26.17;;
26271;SDS011;13997;48.902;12.472;2022-12-18T09:19:30;72.38;;;24.00;;
26271;SDS011;13997;48.902;12.472;2022-12-18T09:21:56;82.03;;;26.38;;
26271;SDS011;13997;48.902;12.472;2022-12-18T09:24:23;64.93;;;22.23;;
26271;SDS011;13997;48.902;12.472;2022-12-18T09:26:48;71.07;;;24.50;;
26271;SDS011;13997;48.902;12.472;2022-12-18T09:29:17;69.60;;;24.65;;
26271;SDS011;13997;48.902;12.472;2022-12-18T09:31:43;65.65;;;23.88;;
26271;SDS011;13997;48.902;12.472;2022-12-18T09:34:09;69.10;;;23.63;;
26271;SDS011;13997;48.902;12.472;2022-12-18T09:36:34;82.63;;;25.25;;
26271;SDS011;13997;48.902;12.472;2022-12-18T09:39:00;76.20;;;24.75;;
26271;SDS011;13997;48.902;12.472;2022-12-18T09:41:45;74.65;;;25.08;;
26271;SDS011;13997;48.902;12.472;2022-12-18T09:44:23;71.25;;;24.90;;
26271;SDS011;13997;48.902;12.472;2022-12-18T09:49:25;83.68;;;26.38;;
26271;SDS011;13997;48.902;12.472;2022-12-18T09:54:44;80.35;;;25.73;;
26271;SDS011;13997;48.902;12.472;2022-12-18T09:57:17;76.13;;;25.33;;
26271;SDS011;13997;48.902;12.472;2022-12-18T09:59:50;74.70;;;24.92;;
26271;SDS011;13997;48.902;12.472;2022-12-18T10:02:20;74.80;;;25.98;;
26271;SDS011;13997;48.902;12.472;2022-12-18T10:05:09;70.47;;;24.25;;
26271;SDS011;13997;48.902;12.472;2022-12-18T10:07:47;70.60;;;25.80;;
26271;SDS011;13997;48.902;12.472;2022-12-18T10:12:58;65.38;;;24.23;;
26271;SDS011;13997;48.902;12.472;2022-12-18T10:15:27;72.35;;;25.27;;
26271;SDS011;13997;48.902;12.472;2022-12-18T10:21:09;69.45;;;26.33;;
26271;SDS011;13997;48.902;12.472;2022-12-18T10:26:09;79.72;;;27.98;;
26271;SDS011;13997;48.902;12.472;2022-12-18T10:28:38;65.82;;;25.70;;
26271;SDS011;13997;48.902;12.472;2022-12-18T10:31:15;66.13;;;24.88;;
26271;SDS011;13997;48.902;12.472;2022-12-18T10:33:43;64.10;;;23.58;;
26271;SDS011;13997;48.902;12.472;2022-12-18T10:36:09;70.13;;;24.00;;
26271;SDS011;13997;48.902;12.472;2022-12-18T10:38:35;68.03;;;24.58;;
26271;SDS011;13997;48.902;12.472;2022-12-18T10:41:02;73.47;;;25.48;;
26271;SDS011;13997;48.902;12.472;2022-12-18T10:43:39;69.43;;;25.13;;
26271;SDS011;13997;48.902;12.472;2022-12-18T10:48:41;68.13;;;25.80;;
26271;SDS011;13997;48.902;12.472;2022-12-18T10:54:23;86.05;;;26.92;;
26271;SDS011;13997;48.902;12.472;2022-12-18T10:56:50;75.18;;;26.00;;
26271;SDS011;13997;48.902;12.472;2022-12-18T10:59:16;68.32;;;25.92;;
26271;SDS011;13997;48.902;12.472;2022-12-18T11:01:50;71.18;;;25.77;;
26271;SDS011;13997;48.902;12.472;2022-12-18T11:04:24;66.93;;;22.35;;
26271;SDS011;13997;48.902;12.472;2022-12-18T11:09:24;72.07;;;27.75;;
26271;SDS011;13997;48.902;12.472;2022-12-18T11:11:57;75.32;;;25.80;;
26271;SDS011;13997;48.902;12.472;2022-12-18T11:14:34;72.43;;;25.25;;
26271;SDS011;13997;48.902;12.472;2022-12-18T11:19:59;76.43;;;25.17;;
26271;SDS011;13997;48.902;12.472;2022-12-18T11:25:00;74.73;;;26.23;;
26271;SDS011;13997;48.902;12.472;2022-12-18T11:27:31;77.57;;;25.35;;
26271;SDS011;13997;48.902;12.472;2022-12-18T11:30:08;77.88;;;26.98;;
26271;SDS011;13997;48.902;12.472;2022-12-18T11:32:46;78.32;;;29.23;;
26271;SDS011;13997;48.902;12.472;2022-12-18T11:40:59;77.93;;;26.27;;
26271;SDS011;13997;48.902;12.472;2022-12-18T11:43:54;68.15;;;24.42;;
26271;SDS011;13997;48.902;12.472;2022-12-18T11:47:09;68.82;;;24.50;;
26271;SDS011;13997;48.902;12.472;2022-12-18T11:49:23;73.55;;;24.67;;
26271;SDS011;13997;48.902;12.472;2022-12-18T11:51:59;72.45;;;24.27;;
26271;SDS011;13997;48.902;12.472;2022-12-18T11:54:32;69.47;;;25.05;;
26271;SDS011;13997;48.902;12.472;2022-12-18T11:57:00;76.68;;;26.40;;
26271;SDS011;13997;48.902;12.472;2022-12-18T12:02:21;67.90;;;25.88;;
26271;SDS011;13997;48.902;12.472;2022-12-18T12:07:37;66.85;;;27.13;;
26271;SDS011;13997;48.902;12.472;2022-12-18T12:40:19;64.45;;;23.50;;
26271;SDS011;13997;48.902;12.472;2022-12-18T12:42:51;75.00;;;26.00;;
26271;SDS011;13997;48.902;12.472;2022-12-18T12:51:25;61.10;;;22.50;;
26271;SDS011;13997;48.902;12.472;2022-12-18T12:54:00;57.22;;;22.15;;
26271;SDS011;13997;48.902;12.472;2022-12-18T12:56:39;53.03;;;21.15;;
26271;SDS011;13997;48.902;12.472;2022-12-18T12:59:30;52.03;;;20.90;;
26271;SDS011;13997;48.902;12.472;2022-12-18T13:05:28;52.70;;;21.10;;
26271;SDS011;13997;48.902;12.472;2022-12-18T13:08:11;59.08;;;23.05;;
26271;SDS011;13997;48.902;12.472;2022-12-18T13:10:46;56.50;;;21.10;;
26271;SDS011;13997;48.902;12.472;2022-12-18T13:13:13;61.60;;;21.73;;
26271;SDS011;13997;48.902;12.472;2022-12-18T13:15:47;54.92;;;22.42;;
26271;SDS011;13997;48.902;12.472;2022-12-18T13:18:27;54.45;;;22.10;;
26271;SDS011;13997;48.902;12.472;2022-12-18T13:25:48;60.80;;;24.00;;
26271;SDS011;13997;48.902;12.472;2022-12-18T13:28:49;59.25;;;23.23;;
26271;SDS011;13997;48.902;12.472;2022-12-18T13:31:10;58.63;;;22.83;;
26271;SDS011;13997;48.902;12.472;2022-12-18T13:33:55;54.03;;;21.80;;
26271;SDS011;13997;48.902;12.472;2022-12-18T13:36:43;60.35;;;23.33;;
26271;SDS011;13997;48.902;12.472;2022-12-18T13:41:47;54.60;;;22.40;;
26271;SDS011;13997;48.902;12.472;2022-12-18T13:44:24;57.45;;;21.75;;
26271;SDS011;13997;48.902;12.472;2022-12-18T13:46:58;54.35;;;22.42;;
26271;SDS011;13997;48.902;12.472;2022-12-18T13:52:14;59.45;;;22.55;;
26271;SDS011;13997;48.902;12.472;2022-12-18T13:54:45;40.63;;;17.00;;
26271;SDS011;13997;48.902;12.472;2022-12-18T14:02:48;53.47;;;22.45;;
26271;SDS011;13997;48.902;12.472;2022-12-18T14:05:25;71.00;;;26.73;;
26271;SDS011;13997;48.902;12.472;2022-12-18T14:07:51;64.75;;;26.15;;
26271;SDS011;13997;48.902;12.472;2022-12-18T14:10:18;63.65;;;26.40;;
26271;SDS011;13997;48.902;12.472;2022-12-18T14:12:45;67.18;;;24.27;;
26271;SDS011;13997;48.902;12.472;2022-12-18T14:17:58;57.63;;;22.48;;
26271;SDS011;13997;48.902;12.472;2022-12-18T14:20:33;53.10;;;22.02;;
26271;SDS011;13997;48.902;12.472;2022-12-18T14:22:59;63.88;;;23.25;;
26271;SDS011;13997;48.902;12.472;2022-12-18T14:25:26;59.78;;;22.50;;
26271;SDS011;13997;48.902;12.472;2022-12-18T14:30:26;56.47;;;22.05;;
26271;SDS011;13997;48.902;12.472;2022-12-18T14:33:04;56.15;;;23.60;;
26271;SDS011;13997;48.902;12.472;2022-12-18T14:35:34;55.22;;;22.90;;
26271;SDS011;13997;48.902;12.472;2022-12-18T14:41:01;64.53;;;24.88;;
26271;SDS011;13997;48.902;12.472;2022-12-18T14:43:31;51.33;;;22.25;;
26271;SDS011;13997;48.902;12.472;2022-12-18T14:45:58;61.35;;;24.30;;
26271;SDS011;13997;48.902;12.472;2022-12-18T14:48:33;58.80;;;23.30;;
26271;SDS011;13997;48.902;12.472;2022-12-18T14:51:03;55.80;;;23.48;;
26271;SDS011;13997;48.902;12.472;2022-12-18T14:55:59;67.10;;;25.08;;
26271;SDS011;13997;48.902;12.472;2022-12-18T14:58:25;73.57;;;24.60;;
26271;SDS011;13997;48.902;12.472;2022-12-18T15:00:51;60.97;;;24.48;;
26271;SDS011;13997;48.902;12.472;2022-12-18T15:03:20;66.20;;;26.85;;
26271;SDS011;13997;48.902;12.472;2022-12-18T15:05:47;69.15;;;26.38;;
26271;SDS011;13997;48.902;12.472;2022-12-18T15:08:35;60.78;;;25.20;;
26271;SDS011;13997;48.902;12.472;2022-12-18T15:11:01;77.18;;;30.00;;
26271;SDS011;13997;48.902;12.472;2022-12-18T15:13:27;65.50;;;25.52;;
26271;SDS011;13997;48.902;12.472;2022-12-18T15:15:54;73.93;;;27.83;;
26271;SDS011;13997;48.902;12.472;2022-12-18T15:18:28;77.95;;;28.27;;
26271;SDS011;13997;48.902;12.472;2022-12-18T15:21:06;76.22;;;30.05;;
26271;SDS011;13997;48.902;12.472;2022-12-18T15:26:08;69.78;;;25.90;;
26271;SDS011;13997;48.902;12.472;2022-12-18T15:28:37;90.20;;;31.35;;
26271;SDS011;13997;48.902;12.472;2022-12-18T15:33:32;66.07;;;26.55;;
26271;SDS011;13997;48.902;12.472;2022-12-18T15:36:03;70.38;;;25.75;;
26271;SDS011;13997;48.902;12.472;2022-12-18T15:38:33;70.35;;;25.85;;
26271;SDS011;13997;48.902;12.472;2022-12-18T15:41:01;70.90;;;28.10;;
26271;SDS011;13997;48.902;12.472;2022-12-18T15:43:27;74.35;;;28.80;;
26271;SDS011;13997;48.902;12.472;2022-12-18T15:46:21;66.45;;;27.55;;
26271;SDS011;13997;48.902;12.472;2022-12-18T15:48:47;64.80;;;25.50;;
26271;SDS011;13997;48.902;12.472;2022-12-18T15:51:18;68.68;;;27.90;;
26271;SDS011;13997;48.902;12.472;2022-12-18T15:54:06;62.33;;;26.60;;
26271;SDS011;13997;48.902;12.472;2022-12-18T15:56:36;77.05;;;31.17;;
26271;SDS011;13997;48.902;12.472;2022-12-18T15:59:21;81.40;;;31.60;;
26271;SDS011;13997;48.902;12.472;2022-12-18T16:01:48;85.35;;;33.50;;
26271;SDS011;13997;48.902;12.472;2022-12-18T16:04:16;70.70;;;29.67;;
26271;SDS011;13997;48.902;12.472;2022-12-18T16:06:47;64.68;;;26.40;;
26271;SDS011;13997;48.902;12.472;2022-12-18T16:09:13;69.82;;;28.60;;
26271;SDS011;13997;48.902;12.472;2022-12-18T16:11:39;79.85;;;31.85;;
26271;SDS011;13997;48.902;12.472;2022-12-18T16:16:48;92.57;;;35.55;;
26271;SDS011;13997;48.902;12.472;2022-12-18T16:19:15;78.47;;;33.67;;
26271;SDS011;13997;48.902;12.472;2022-12-18T16:21:41;73.38;;;28.75;;
26271;SDS011;13997;48.902;12.472;2022-12-18T16:24:18;90.40;;;35.85;;
26271;SDS011;13997;48.902;12.472;2022-12-18T16:26:47;126.68;;;49.20;;
26271;SDS011;13997;48.902;12.472;2022-12-18T16:29:13;146.68;;;52.28;;
26271;SDS011;13997;48.902;12.472;2022-12-18T16:31:38;167.52;;;53.25;;
26271;SDS011;13997;48.902;12.472;2022-12-18T16:36:43;88.85;;;34.33;;
26271;SDS011;13997;48.902;12.472;2022-12-18T16:39:10;78.53;;;32.03;;